createdAt,value
2018-03-11T00:01:21.973Z,12.43
2018-03-11T00:03:49.524Z,10.03
2018-03-11T00:06:22.527Z,14.30
2018-03-11T00:08:55.548Z,12.80
2018-03-11T00:11:27.523Z,12.27
2018-03-11T00:13:55.010Z,12.93
2018-03-11T00:16:22.581Z,13.00
2018-03-11T00:18:49.975Z,11.90
2018-03-11T00:21:17.408Z,11.00
2018-03-11T00:23:44.821Z,12.55
2018-03-11T00:26:12.218Z,13.17
2018-03-11T00:28:40.360Z,12.70
2018-03-11T00:31:07.761Z,14.70
2018-03-11T00:33:35.769Z,14.40
2018-03-11T00:36:03.412Z,11.27
2018-03-11T00:38:30.823Z,12.93
2018-03-11T00:40:58.224Z,10.90
2018-03-11T00:43:25.638Z,10.20
2018-03-11T00:45:53.099Z,11.70
2018-03-11T00:48:20.500Z,11.50
2018-03-11T00:50:47.913Z,15.10
2018-03-11T00:53:15.374Z,12.95
2018-03-11T00:55:48.240Z,13.33
2018-03-11T00:58:21.217Z,13.30
2018-03-11T01:00:48.624Z,12.67
2018-03-11T01:03:16.061Z,12.37
2018-03-11T01:05:43.444Z,11.70
2018-03-11T01:08:10.899Z,12.80
2018-03-11T01:10:38.496Z,11.97
2018-03-11T01:13:05.973Z,13.30
2018-03-11T01:15:33.439Z,12.47
2018-03-11T01:18:00.851Z,12.97
2018-03-11T01:20:33.752Z,14.33
2018-03-11T01:23:05.751Z,14.73
2018-03-11T01:25:33.203Z,10.52
2018-03-11T01:28:00.611Z,12.97
2018-03-11T01:30:28.025Z,15.53
2018-03-11T01:32:55.489Z,12.70
2018-03-11T01:35:23.012Z,13.60
2018-03-11T01:37:50.496Z,15.73
2018-03-11T01:40:17.890Z,12.97
2018-03-11T01:42:45.447Z,13.90
2018-03-11T01:45:18.389Z,14.05
2018-03-11T01:47:51.438Z,12.83
2018-03-11T01:50:22.513Z,13.73
2018-03-11T01:52:55.782Z,12.57
2018-03-11T01:55:23.217Z,13.60
2018-03-11T01:57:50.616Z,15.57
2018-03-11T02:00:18.028Z,13.20
2018-03-11T02:02:45.633Z,12.50
2018-03-11T02:05:13.066Z,13.80
2018-03-11T02:07:40.546Z,15.47
2018-03-11T02:10:08.163Z,15.07
2018-03-11T02:12:41.196Z,13.60
2018-03-11T02:15:14.292Z,13.67
2018-03-11T02:17:47.252Z,14.93
2018-03-11T02:20:20.222Z,14.13
2018-03-11T02:22:48.279Z,12.43
2018-03-11T02:25:15.736Z,13.33
2018-03-11T02:27:43.186Z,14.27
2018-03-11T02:30:10.780Z,15.73
2018-03-11T02:32:38.201Z,15.88
2018-03-11T02:35:05.646Z,12.37
2018-03-11T02:37:33.092Z,14.63
2018-03-11T02:40:00.505Z,13.60
2018-03-11T02:42:27.953Z,13.50
2018-03-11T02:44:56.944Z,14.50
2018-03-11T02:47:24.513Z,12.93
2018-03-11T02:49:51.939Z,11.73
2018-03-11T02:52:19.479Z,11.83
2018-03-11T02:54:47.028Z,12.70
2018-03-11T02:57:14.510Z,12.63
2018-03-11T02:59:42.003Z,13.07
2018-03-11T03:02:09.434Z,13.37
2018-03-11T03:04:36.857Z,12.83
2018-03-11T03:07:09.904Z,13.93
2018-03-11T03:09:42.954Z,11.43
2018-03-11T03:12:15.935Z,16.20
2018-03-11T03:14:45.982Z,12.00
2018-03-11T03:17:13.400Z,10.70
2018-03-11T03:19:40.865Z,12.30
2018-03-11T03:22:08.366Z,12.93
2018-03-11T03:24:35.801Z,12.07
2018-03-11T03:27:03.240Z,11.33
2018-03-11T03:29:30.811Z,12.13
2018-03-11T03:31:58.217Z,13.40
2018-03-11T03:34:25.671Z,11.47
2018-03-11T03:36:58.675Z,13.87
2018-03-11T03:39:31.721Z,12.40
2018-03-11T03:42:04.737Z,10.87
2018-03-11T03:44:35.875Z,13.20
2018-03-11T03:47:03.586Z,13.77
2018-03-11T03:49:31.007Z,13.23
2018-03-11T03:51:58.423Z,13.20
2018-03-11T03:54:25.951Z,11.40
2018-03-11T03:56:53.378Z,14.30
2018-03-11T03:59:21.008Z,12.63
2018-03-11T04:01:48.469Z,11.33
2018-03-11T04:04:15.945Z,12.03
2018-03-11T04:06:43.347Z,12.47
2018-03-11T04:09:10.790Z,14.27
2018-03-11T04:11:38.356Z,12.60
2018-03-11T04:14:07.367Z,11.57
2018-03-11T04:16:34.796Z,12.90
2018-03-11T04:19:02.257Z,11.33
2018-03-11T04:21:29.692Z,11.40
2018-03-11T04:23:57.244Z,13.83
2018-03-11T04:26:24.648Z,11.90
2018-03-11T04:28:52.237Z,10.83
2018-03-11T04:31:19.656Z,10.13
2018-03-11T04:33:47.054Z,12.97
2018-03-11T04:36:15.001Z,13.33
2018-03-11T04:38:42.565Z,9.80
2018-03-11T04:41:09.958Z,10.37
2018-03-11T04:43:37.415Z,10.20
2018-03-11T04:46:04.971Z,10.23
2018-03-11T04:48:32.410Z,10.20
2018-03-11T04:50:59.800Z,11.43
2018-03-11T04:53:27.344Z,10.77
2018-03-11T04:55:54.764Z,10.03
2018-03-11T04:58:27.779Z,10.43
2018-03-11T05:01:00.682Z,10.17
2018-03-11T05:03:28.125Z,10.17
2018-03-11T05:05:55.704Z,8.83
2018-03-11T05:08:23.119Z,11.80
2018-03-11T05:10:50.753Z,10.87
2018-03-11T05:13:18.348Z,10.80
2018-03-11T05:15:45.943Z,11.50
2018-03-11T05:18:13.392Z,10.27
2018-03-11T05:20:40.991Z,11.57
2018-03-11T05:23:13.864Z,10.23
2018-03-11T05:25:46.774Z,9.50
2018-03-11T05:28:14.160Z,9.13
2018-03-11T05:30:41.582Z,10.40
2018-03-11T05:33:09.012Z,10.80
2018-03-11T05:35:36.617Z,11.20
2018-03-11T05:38:04.191Z,12.63
2018-03-11T05:40:31.651Z,10.60
2018-03-11T05:42:59.085Z,10.50
2018-03-11T05:45:26.509Z,12.23
2018-03-11T05:47:59.450Z,10.77
2018-03-11T05:50:26.869Z,10.83
2018-03-11T05:52:54.789Z,11.32
2018-03-11T05:55:22.285Z,11.87
2018-03-11T05:57:49.863Z,9.43
2018-03-11T06:00:17.297Z,17.70
2018-03-11T06:02:46.091Z,11.23
2018-03-11T06:05:13.511Z,11.00
2018-03-11T06:07:40.987Z,10.60
2018-03-11T06:10:13.905Z,12.20
2018-03-11T06:12:41.322Z,9.30
2018-03-11T06:15:08.713Z,14.00
2018-03-11T06:17:36.173Z,11.93
2018-03-11T06:20:03.571Z,9.93
2018-03-11T06:22:30.972Z,11.23
2018-03-11T06:24:58.404Z,9.53
2018-03-11T06:27:25.820Z,10.17
2018-03-11T06:29:53.244Z,10.93
2018-03-11T06:32:20.689Z,11.17
2018-03-11T06:34:49.545Z,10.43
2018-03-11T06:37:17.011Z,11.13
2018-03-11T06:39:44.413Z,10.87
2018-03-11T06:42:12.065Z,9.87
2018-03-11T06:44:39.477Z,10.40
2018-03-11T06:47:07.060Z,9.20
2018-03-11T06:49:34.480Z,9.43
2018-03-11T06:52:01.883Z,9.93
2018-03-11T06:54:29.296Z,10.10
2018-03-11T06:57:00.349Z,10.70
2018-03-11T06:59:27.750Z,9.63
2018-03-11T07:01:55.190Z,11.70
2018-03-11T07:04:22.616Z,9.57
2018-03-11T07:06:50.016Z,11.73
2018-03-11T07:09:17.428Z,8.70
2018-03-11T07:11:44.836Z,9.20
2018-03-11T07:14:12.277Z,9.03
2018-03-11T07:16:39.689Z,10.27
2018-03-11T07:19:12.547Z,9.70
2018-03-11T07:21:39.973Z,8.90
2018-03-11T07:24:07.430Z,8.20
2018-03-11T07:26:34.809Z,9.10
2018-03-11T07:29:02.209Z,8.63
2018-03-11T07:31:29.657Z,15.93
2018-03-11T07:33:57.049Z,9.73
2018-03-11T07:36:24.648Z,9.73
2018-03-11T07:38:52.261Z,7.40
2018-03-11T07:41:19.695Z,7.90
2018-03-11T07:43:47.111Z,10.10
2018-03-11T07:46:14.516Z,8.97
2018-03-11T07:48:41.995Z,9.03
2018-03-11T07:51:09.387Z,8.67
2018-03-11T07:53:36.893Z,8.80
2018-03-11T07:56:04.488Z,7.80
2018-03-11T07:58:32.015Z,10.27
2018-03-11T08:00:59.641Z,7.87
2018-03-11T08:03:27.601Z,7.97
2018-03-11T08:05:55.164Z,8.07
2018-03-11T08:08:22.785Z,8.70
2018-03-11T08:10:50.210Z,8.87
2018-03-11T08:13:17.638Z,7.70
2018-03-11T08:15:45.092Z,8.30
2018-03-11T08:18:12.536Z,9.23
2018-03-11T08:20:39.951Z,9.57
2018-03-11T08:23:07.536Z,8.67
2018-03-11T08:25:37.742Z,8.33
2018-03-11T08:28:05.153Z,8.43
2018-03-11T08:30:32.568Z,9.13
2018-03-11T08:33:00.164Z,9.50
2018-03-11T08:35:27.564Z,9.17
2018-03-11T08:37:54.989Z,10.40
2018-03-11T08:40:22.415Z,10.37
2018-03-11T08:42:49.931Z,8.73
2018-03-11T08:45:17.350Z,11.93
2018-03-11T08:47:46.691Z,11.33
2018-03-11T08:50:14.088Z,11.20
2018-03-11T08:52:41.576Z,9.57
2018-03-11T08:55:09.062Z,10.53
2018-03-11T08:57:36.502Z,8.90
2018-03-11T09:00:03.919Z,9.50
2018-03-11T09:02:31.369Z,9.80
2018-03-11T09:04:58.836Z,9.53
2018-03-11T09:07:26.449Z,10.60
2018-03-11T09:09:53.869Z,12.03
2018-03-11T09:12:21.289Z,9.63
2018-03-11T09:14:48.754Z,10.40
2018-03-11T09:20:03.800Z,10.98
2018-03-11T09:22:32.209Z,11.00
2018-03-11T09:25:00.506Z,10.50
2018-03-11T09:27:29.027Z,11.67
2018-03-11T09:30:02.989Z,11.30
2018-03-11T09:32:36.040Z,10.85
2018-03-11T09:35:09.095Z,11.77
2018-03-11T09:37:40.262Z,11.90
2018-03-11T09:40:07.692Z,12.87
2018-03-11T09:42:35.156Z,12.83
2018-03-11T09:45:02.577Z,12.17
2018-03-11T09:47:30.156Z,12.97
2018-03-11T09:49:57.605Z,12.53
2018-03-11T09:52:25.051Z,12.40
2018-03-11T09:54:52.639Z,11.90
2018-03-11T09:57:20.259Z,12.53
2018-03-11T09:59:47.688Z,13.63
2018-03-11T10:02:15.131Z,11.30
2018-03-11T10:04:42.601Z,12.93
2018-03-11T10:07:10.006Z,12.13
2018-03-11T10:09:37.443Z,12.60
2018-03-11T10:12:05.068Z,11.57
2018-03-11T10:14:32.693Z,13.57
2018-03-11T10:17:00.137Z,14.63
2018-03-11T10:19:27.585Z,12.53
2018-03-11T10:22:00.538Z,10.67
2018-03-11T10:24:28.013Z,12.40
2018-03-11T10:26:55.428Z,12.67
2018-03-11T10:29:22.866Z,11.57
2018-03-11T10:31:50.292Z,12.30
2018-03-11T10:34:17.741Z,16.27
2018-03-11T10:36:45.354Z,12.00
2018-03-11T10:39:12.824Z,12.07
2018-03-11T10:41:40.958Z,11.73
2018-03-11T10:44:08.657Z,12.87
2018-03-11T10:46:36.091Z,12.83
2018-03-11T10:49:03.505Z,12.00
2018-03-11T10:51:31.014Z,11.40
2018-03-11T10:53:58.492Z,13.32
2018-03-11T10:56:26.134Z,11.70
2018-03-11T10:58:53.686Z,13.73
2018-03-11T11:01:21.148Z,12.30
2018-03-11T11:03:52.557Z,12.27
2018-03-11T11:06:25.444Z,13.03
2018-03-11T11:08:58.616Z,11.33
2018-03-11T11:11:26.854Z,13.70
2018-03-11T11:13:54.417Z,11.07
2018-03-11T11:16:21.875Z,11.00
2018-03-11T11:18:51.781Z,10.63
2018-03-11T11:21:19.426Z,15.27
2018-03-11T11:23:48.645Z,11.07
2018-03-11T11:26:21.461Z,12.10
2018-03-11T11:28:49.034Z,12.53
2018-03-11T11:31:16.463Z,12.77
2018-03-11T11:33:43.956Z,10.80
2018-03-11T11:36:11.425Z,10.87
2018-03-11T11:38:39.597Z,9.53
2018-03-11T11:41:08.067Z,12.23
2018-03-11T11:43:36.687Z,11.60
2018-03-11T11:46:04.649Z,12.43
2018-03-11T11:48:32.759Z,10.93
2018-03-11T11:51:08.693Z,11.47
2018-03-11T11:53:43.646Z,14.17
2018-03-11T11:56:11.287Z,15.73
2018-03-11T11:58:38.909Z,12.07
2018-03-11T12:01:06.578Z,12.80
2018-03-11T12:03:35.523Z,14.07
2018-03-11T12:06:03.535Z,14.57
2018-03-11T12:08:31.069Z,12.30
2018-03-11T12:10:59.329Z,13.60
2018-03-11T12:13:26.848Z,12.20
2018-03-11T12:15:54.916Z,14.83
2018-03-11T12:18:23.347Z,13.07
2018-03-11T12:20:50.838Z,15.60
2018-03-11T12:23:18.345Z,12.43
2018-03-11T12:25:45.823Z,12.07
2018-03-11T12:28:13.292Z,15.13
2018-03-11T12:30:42.697Z,13.85
2018-03-11T12:33:10.264Z,14.20
2018-03-11T12:35:38.380Z,14.43
2018-03-11T12:38:09.514Z,14.97
2018-03-11T12:40:37.033Z,16.23
2018-03-11T12:43:04.537Z,14.67
2018-03-11T12:45:31.952Z,15.20
2018-03-11T12:47:59.585Z,18.30
2018-03-11T12:50:27.018Z,14.60
2018-03-11T12:52:54.643Z,15.03
2018-03-11T12:55:23.955Z,17.63
2018-03-11T12:57:51.391Z,15.33
2018-03-11T13:00:18.816Z,15.93
2018-03-11T13:02:46.290Z,15.10
2018-03-11T13:05:13.821Z,14.07
2018-03-11T13:07:41.214Z,15.80
2018-03-11T13:10:08.766Z,16.70
2018-03-11T13:12:36.411Z,16.10
2018-03-11T13:15:03.829Z,15.17
2018-03-11T13:17:31.293Z,20.10
2018-03-11T13:36:57.593Z,9.85
2018-03-11T13:39:31.569Z,10.43
2018-03-11T13:41:59.877Z,11.77
2018-03-11T13:44:28.259Z,12.57
2018-03-11T13:47:05.425Z,12.00
2018-03-11T13:49:33.807Z,13.97
2018-03-11T13:52:14.041Z,18.80
2018-03-11T13:54:42.439Z,16.07
2018-03-11T14:00:12.639Z,17.57
2018-03-11T14:02:41.084Z,19.30
2018-03-11T14:05:10.570Z,18.10
2018-03-11T14:07:39.939Z,17.80
2018-03-11T14:10:08.332Z,18.57
2018-03-11T14:12:37.673Z,23.17
2018-03-11T14:15:06.127Z,21.93
2018-03-11T14:17:34.569Z,21.83
2018-03-11T14:20:02.944Z,21.23
2018-03-11T14:22:33.074Z,22.57
2018-03-11T14:25:01.459Z,22.40
2018-03-11T14:27:29.837Z,27.70
2018-03-11T14:29:58.277Z,22.77
2018-03-11T14:32:26.793Z,22.13
2018-03-11T14:34:55.170Z,20.33
2018-03-11T14:37:23.735Z,21.70
2018-03-11T14:39:52.129Z,20.87
2018-03-11T14:42:21.200Z,21.80
2018-03-11T14:44:49.626Z,22.83
2018-03-11T14:47:18.041Z,20.17
2018-03-11T14:49:46.427Z,21.47
2018-03-11T14:52:15.629Z,23.60
2018-03-11T14:54:44.681Z,21.62
2018-03-11T14:57:13.081Z,19.02
2018-03-11T14:59:41.548Z,24.07
2018-03-11T15:02:09.946Z,20.92
2018-03-11T15:04:38.518Z,24.33
2018-03-11T15:07:07.204Z,23.57
2018-03-11T15:09:41.837Z,24.17
2018-03-11T15:12:10.270Z,27.55
2018-03-11T15:14:38.806Z,25.03
2018-03-11T15:17:08.113Z,22.53
2018-03-11T15:19:36.523Z,27.30
2018-03-11T15:22:04.951Z,31.67
2018-03-11T15:24:33.388Z,25.00
2018-03-11T15:27:02.877Z,27.47
2018-03-11T15:29:31.283Z,26.08
2018-03-11T15:31:59.664Z,37.03
2018-03-11T15:34:28.165Z,27.30
2018-03-11T15:36:56.602Z,30.13
2018-03-11T15:39:25.026Z,27.23
2018-03-11T15:41:53.438Z,26.97
2018-03-11T15:44:21.826Z,25.57
2018-03-11T15:46:50.384Z,32.55
2018-03-11T15:49:18.816Z,31.23
2018-03-11T15:51:47.279Z,31.60
2018-03-11T15:54:21.278Z,29.40
2018-03-11T15:56:50.599Z,34.77
2018-03-11T16:01:52.691Z,39.80
2018-03-11T16:04:21.833Z,36.70
2018-03-11T16:06:50.254Z,36.27
2018-03-11T16:09:18.645Z,37.73
2018-03-11T16:11:47.072Z,36.23
2018-03-11T16:14:15.472Z,34.47
2018-03-11T16:16:43.853Z,36.53
2018-03-11T16:19:12.292Z,35.66
2018-03-11T16:21:41.436Z,36.03
2018-03-11T16:24:10.749Z,33.67
2018-03-11T16:26:41.550Z,37.90
2018-03-11T16:29:10.744Z,37.53
2018-03-11T16:31:39.178Z,41.43
2018-03-11T16:34:08.389Z,41.47
2018-03-11T16:36:36.809Z,44.30
2018-03-11T16:39:05.235Z,45.73
2018-03-11T16:41:33.620Z,45.05
2018-03-11T16:44:01.993Z,40.90
2018-03-11T16:46:30.533Z,47.20
2018-03-11T16:49:01.258Z,43.63
2018-03-11T16:51:29.739Z,48.53
2018-03-11T16:53:58.119Z,47.13
2018-03-11T16:56:26.512Z,46.30
2018-03-11T16:58:54.960Z,48.80
2018-03-11T17:01:23.341Z,43.85
2018-03-11T17:03:52.616Z,47.43
2018-03-11T17:06:21.220Z,50.10
2018-03-11T17:08:49.855Z,56.90
2018-03-11T17:11:22.789Z,45.87
2018-03-11T17:13:51.372Z,47.93
2018-03-11T17:16:19.831Z,41.80
2018-03-11T17:18:48.422Z,47.00
2018-03-11T17:21:16.833Z,52.45
2018-03-11T17:23:45.237Z,41.87
2018-03-11T17:26:13.703Z,46.23
2018-03-11T17:28:42.906Z,44.70
2018-03-11T17:31:12.088Z,46.77
2018-03-11T17:33:43.758Z,50.23
2018-03-11T17:36:12.223Z,49.10
2018-03-11T17:38:40.796Z,46.87
2018-03-11T17:41:09.179Z,43.93
2018-03-11T17:43:37.627Z,44.70
2018-03-11T17:46:16.347Z,48.80
2018-03-11T17:48:44.909Z,49.47
2018-03-11T17:51:13.465Z,40.83
2018-03-11T17:53:41.978Z,50.00
2018-03-11T17:56:11.220Z,51.43
2018-03-11T17:58:39.669Z,54.13
2018-03-11T18:01:08.078Z,48.60
2018-03-11T18:03:36.620Z,45.23
2018-03-11T18:06:06.319Z,47.05
2018-03-11T18:08:35.677Z,44.97
2018-03-11T18:11:04.089Z,49.47
2018-03-11T18:13:32.524Z,51.03
2018-03-11T18:16:01.760Z,55.80
2018-03-11T18:18:30.897Z,52.57
2018-03-11T18:20:59.273Z,49.13
2018-03-11T18:23:27.872Z,46.90
2018-03-11T18:25:56.290Z,62.67
2018-03-11T18:28:25.509Z,58.40
2018-03-11T18:30:53.927Z,51.43
2018-03-11T18:33:22.365Z,49.47
2018-03-11T18:35:50.769Z,48.17
2018-03-11T18:38:20.416Z,48.63
2018-03-11T18:40:48.848Z,63.53
2018-03-11T18:43:17.265Z,62.67
2018-03-11T18:45:45.652Z,57.33
2018-03-11T18:48:14.112Z,52.50
2018-03-11T18:50:43.266Z,56.28
2018-03-11T18:53:11.685Z,59.70
2018-03-11T18:55:40.880Z,62.50
2018-03-11T18:58:09.442Z,55.03
2018-03-11T19:00:43.838Z,69.00
2018-03-11T19:03:12.210Z,60.47
2018-03-11T19:05:41.546Z,64.50
2018-03-11T19:08:09.979Z,70.67
2018-03-11T19:10:39.175Z,71.63
2018-03-11T19:13:09.061Z,85.84
2018-03-11T19:15:37.433Z,76.73
2018-03-11T19:18:06.634Z,81.55
2018-03-11T19:20:35.076Z,83.47
2018-03-11T19:23:03.459Z,84.60
2018-03-11T19:25:37.281Z,80.80
2018-03-11T19:28:05.687Z,83.13
2018-03-11T19:30:34.073Z,77.73
2018-03-11T19:33:02.678Z,77.77
2018-03-11T19:35:31.096Z,103.03
2018-03-11T19:37:59.486Z,95.37
2018-03-11T19:40:27.866Z,87.90
2018-03-11T19:42:56.310Z,96.27
2018-03-11T19:45:24.729Z,85.33
2018-03-11T19:47:54.395Z,78.50
2018-03-11T19:50:22.789Z,91.93
2018-03-11T19:52:51.181Z,103.45
2018-03-11T19:55:20.441Z,110.47
2018-03-11T19:57:48.895Z,85.53
2018-03-11T20:00:17.328Z,92.90
2018-03-11T20:02:46.649Z,73.03
2018-03-11T20:05:15.091Z,87.28
2018-03-11T20:07:43.608Z,111.37
2018-03-11T20:10:13.355Z,83.53
2018-03-11T20:12:41.793Z,84.77
2018-03-11T20:15:11.153Z,87.93
2018-03-11T20:17:39.657Z,81.20
2018-03-11T20:20:08.104Z,76.63
2018-03-11T20:22:36.505Z,103.83
2018-03-11T20:25:04.980Z,76.20
2018-03-11T20:27:34.195Z,86.77
2018-03-11T20:30:02.622Z,87.57
2018-03-11T20:32:33.345Z,93.33
2018-03-11T20:35:01.809Z,77.23
2018-03-11T20:37:30.199Z,87.47
2018-03-11T20:39:58.737Z,93.53
2018-03-11T20:42:27.112Z,73.90
2018-03-11T20:44:55.680Z,83.70
2018-03-11T20:47:24.965Z,84.27
2018-03-11T20:49:53.331Z,87.93
2018-03-11T20:52:21.700Z,111.68
2018-03-11T20:54:54.468Z,82.40
2018-03-11T20:57:23.817Z,73.27
2018-03-11T20:59:52.239Z,78.60
2018-03-11T21:02:20.644Z,76.90
2018-03-11T21:04:49.077Z,86.23
2018-03-11T21:07:17.643Z,91.27
2018-03-11T21:09:46.044Z,77.83
2018-03-11T21:12:14.472Z,84.20
2018-03-11T21:14:42.862Z,96.50
2018-03-11T21:19:44.240Z,86.80
2018-03-11T21:22:12.669Z,95.40
2018-03-11T21:24:41.052Z,86.30
2018-03-11T21:27:10.470Z,82.00
2018-03-11T21:29:39.630Z,93.33
2018-03-11T21:32:08.021Z,97.90
2018-03-11T21:34:36.459Z,111.33
2018-03-11T21:37:04.851Z,95.23
2018-03-11T21:39:33.256Z,94.67
2018-03-11T21:42:01.774Z,102.27
2018-03-11T21:44:35.692Z,85.57
2018-03-11T21:47:06.698Z,108.65
2018-03-11T21:49:35.120Z,109.30
2018-03-11T21:52:03.581Z,84.00
2018-03-11T21:54:32.027Z,94.60
2018-03-11T21:57:01.181Z,83.30
2018-03-11T21:59:29.570Z,85.43
2018-03-11T22:01:58.002Z,77.57
2018-03-11T22:04:27.136Z,87.97
2018-03-11T22:06:55.519Z,80.20
2018-03-11T22:09:26.457Z,84.87
2018-03-11T22:11:55.027Z,91.97
2018-03-11T22:14:23.407Z,98.17
2018-03-11T22:16:51.825Z,73.33
2018-03-11T22:19:20.233Z,70.73
2018-03-11T22:21:48.693Z,68.10
2018-03-11T22:24:17.123Z,76.03
2018-03-11T22:26:45.691Z,86.07
2018-03-11T22:29:14.926Z,81.82
2018-03-11T22:31:46.840Z,70.80
2018-03-11T22:34:15.255Z,72.73
2018-03-11T22:36:44.392Z,82.97
2018-03-11T22:39:12.786Z,76.90
2018-03-11T22:41:42.121Z,84.63
2018-03-11T22:44:11.422Z,89.60
2018-03-11T22:46:39.835Z,94.10
2018-03-11T22:49:08.980Z,85.63
2018-03-11T22:51:37.543Z,82.60
2018-03-11T22:54:12.335Z,81.20
2018-03-11T22:56:40.740Z,91.05
2018-03-11T22:59:09.171Z,82.70
2018-03-11T23:01:37.575Z,81.70
2018-03-11T23:04:05.999Z,67.20
2018-03-11T23:06:34.427Z,81.30
2018-03-11T23:09:02.815Z,70.20
2018-03-11T23:11:31.212Z,75.30
2018-03-11T23:13:59.658Z,73.12
2018-03-11T23:16:31.511Z,80.57
2018-03-11T23:19:11.668Z,68.30
2018-03-11T23:21:40.172Z,89.43
2018-03-11T23:24:08.713Z,88.90
2018-03-11T23:26:37.891Z,95.03
2018-03-11T23:29:09.428Z,95.60
2018-03-11T23:31:37.849Z,87.97
2018-03-11T23:34:06.233Z,83.33
2018-03-11T23:36:35.973Z,104.13
2018-03-11T23:39:05.108Z,93.40
2018-03-11T23:41:33.579Z,87.80
2018-03-11T23:44:01.969Z,104.53
2018-03-11T23:46:30.364Z,89.80
2018-03-11T23:48:58.775Z,113.10
2018-03-11T23:51:27.168Z,101.90
2018-03-11T23:53:55.790Z,105.07
2018-03-11T23:56:24.353Z,112.82
2018-03-11T23:58:58.107Z,119.67
